Time;durP1;ratioP1;P1;durP2;ratioP2;P2;SDS_P1;SDS_P2;PMS_P1;PMS_P2;Temp;Humidity;BMP_temperature;BMP_pressure;BME280_temperature;BME280_humidity;BME280_pressure;Samples;Min_cycle;Max_cycle;Signal;HPM_P1;HPM_P2
2023/04/23 00:00:56;;;;;;;;;;;15.60;53.60;;;11.23;81.92;95036.13;5032387;28;19913;-50
2023/04/23 00:03:23;;;;;;;;;;;15.60;53.60;;;11.21;81.87;95040.13;5018946;28;19913;-50
2023/04/23 00:05:53;;;;;;;;;;;15.60;53.70;;;11.22;82.47;95039.88;5012810;28;19920;-51
2023/04/23 00:08:20;;;;;;;;;;;15.60;53.70;;;11.20;83.57;95033.22;5011840;28;19917;-50
2023/04/23 00:10:46;;;;;;;;;;;15.60;53.70;;;11.15;82.06;95046.59;5011511;28;19965;-49
2023/04/23 00:13:12;;;;;;;;;;;15.60;53.70;;;11.13;82.27;95041.56;5012585;28;19909;-50
2023/04/23 00:15:38;;;;;;;;;;;15.50;53.70;;;11.14;82.69;95047.69;5026155;28;20248;-54
2023/04/23 00:18:04;;;;;;;;;;;15.50;53.70;;;11.13;83.13;95044.22;5032460;28;19951;-50
2023/04/23 00:20:31;;;;;;;;;;;15.50;53.70;;;11.11;82.74;95047.16;5029716;28;19920;-50
2023/04/23 00:22:56;;;;;;;;;;;15.50;53.80;;;11.12;83.80;95047.94;5032183;28;19962;-53
2023/04/23 00:25:22;;;;;;;;;;;15.40;53.80;;;11.09;84.12;95048.50;5032450;28;19908;-50
2023/04/23 00:27:48;;;;;;;;;;;15.40;53.80;;;11.08;84.24;95053.03;5015585;28;19913;-49
2023/04/23 00:30:15;;;;;;;;;;;15.40;53.90;;;11.07;84.20;95054.13;5012679;28;19916;-50
2023/04/23 00:32:41;;;;;;;;;;;15.40;54.00;;;11.04;83.89;95052.03;5004874;28;19909;-51
2023/04/23 00:35:07;;;;;;;;;;;15.30;54.00;;;11.04;84.14;95062.69;5009859;28;19909;-50
2023/04/23 00:37:33;;;;;;;;;;;15.30;54.00;;;11.01;84.39;95067.78;5011209;28;20431;-50
2023/04/23 00:39:59;;;;;;;;;;;15.30;54.10;;;10.96;84.55;95073.13;5011313;28;20008;-53
2023/04/23 00:42:25;;;;;;;;;;;15.30;54.10;;;10.95;84.33;95058.22;5011974;28;19913;-49
2023/04/23 00:44:51;;;;;;;;;;;15.20;54.20;;;10.93;84.04;95069.16;5011114;28;19909;-50
2023/04/23 00:47:19;;;;;;;;;;;15.20;54.30;;;10.88;83.87;95066.56;5012083;28;19909;-49
2023/04/23 00:49:45;;;;;;;;;;;15.20;54.30;;;10.86;84.69;95071.34;5010644;28;20066;-50
2023/04/23 00:52:11;;;;;;;;;;;15.20;54.30;;;10.82;84.47;95067.66;5011217;28;19909;-50
2023/04/23 00:54:37;;;;;;;;;;;15.20;54.40;;;10.85;85.78;95067.09;5012184;28;19916;-50
2023/04/23 00:57:03;;;;;;;;;;;15.10;54.40;;;10.83;86.26;95067.38;5010655;28;20027;-52
2023/04/23 00:59:31;;;;;;;;;;;15.10;54.40;;;10.80;86.70;95065.25;5011852;28;19919;-51
2023/04/23 01:01:57;;;;;;;;;;;15.10;54.50;;;10.73;87.44;95075.44;5010771;28;19916;-50
2023/04/23 01:04:29;;;;;;;;;;;15.00;54.50;;;10.74;87.77;95074.38;5007165;28;19909;-51
2023/04/23 01:06:57;;;;;;;;;;;15.00;54.60;;;10.68;87.24;95072.81;4992307;28;19948;-51
2023/04/23 01:09:26;;;;;;;;;;;15.00;54.70;;;10.66;88.33;95072.31;5006526;28;19936;-52
2023/04/23 01:11:52;;;;;;;;;;;15.00;54.70;;;10.66;88.74;95074.97;4992485;28;19909;-55
2023/04/23 01:14:18;;;;;;;;;;;15.00;54.80;;;10.59;89.48;95071.78;4995604;28;20360;-52
2023/04/23 01:16:44;;;;;;;;;;;14.90;54.80;;;10.61;90.54;95072.31;5011556;28;19909;-50
2023/04/23 01:19:10;;;;;;;;;;;14.90;54.90;;;10.59;90.98;95077.94;5011926;28;19913;-51
2023/04/23 01:21:41;;;;;;;;;;;14.90;55.00;;;10.58;91.44;95075.53;4997284;28;19917;-50
2023/04/23 01:24:10;;;;;;;;;;;14.80;55.00;;;10.54;92.41;95072.63;4991964;28;19917;-53
2023/04/23 01:26:35;;;;;;;;;;;14.80;55.10;;;10.48;93.33;95065.75;4997373;28;19913;-50
2023/04/23 01:29:02;;;;;;;;;;;14.70;55.20;;;10.46;93.74;95075.09;5011554;28;19916;-50
2023/04/23 01:31:30;;;;;;;;;;;14.70;55.30;;;10.42;94.35;95085.50;5010068;28;19916;-50
2023/04/23 01:33:57;;;;;;;;;;;14.60;55.40;;;10.37;94.93;95083.66;5006458;28;20000;-51
2023/04/23 01:36:24;;;;;;;;;;;14.60;55.50;;;10.35;95.36;95079.69;5007493;28;20372;-50
2023/04/23 01:38:50;;;;;;;;;;;14.50;55.50;;;10.29;96.30;95081.56;5006462;28;19909;-50
2023/04/23 01:41:17;;;;;;;;;;;14.50;55.70;;;10.26;97.17;95084.78;4992285;28;20369;-49
2023/04/23 01:43:44;;;;;;;;;;;14.50;55.80;;;10.22;97.51;95085.59;5008297;28;19909;-50
2023/04/23 01:46:10;;;;;;;;;;;14.40;55.90;;;10.23;97.70;95087.97;5013747;28;19913;-51
2023/04/23 01:48:37;;;;;;;;;;;14.40;56.00;;;10.20;97.82;95088.50;5015524;28;19909;-49
2023/04/23 01:51:03;;;;;;;;;;;14.40;56.20;;;10.18;97.81;95085.31;5005951;28;20008;-55
2023/04/23 01:53:29;;;;;;;;;;;14.30;56.10;;;10.13;98.77;95085.34;4995697;28;19909;-49
2023/04/23 01:55:56;;;;;;;;;;;14.30;56.30;;;10.10;99.54;95094.66;4995394;28;19914;-49
2023/04/23 01:58:23;;;;;;;;;;;14.30;56.40;;;10.07;99.49;95089.09;5015333;28;19909;-51
2023/04/23 02:00:49;;;;;;;;;;;14.20;56.40;;;10.02;99.87;95092.56;5015024;28;19936;-50
2023/04/23 02:03:16;;;;;;;;;;;14.30;56.50;;;10.03;100.00;95093.34;5014344;28;19960;-49
2023/04/23 02:05:43;;;;;;;;;;;14.30;56.60;;;9.97;100.00;95081.97;5015234;28;20287;-49
2023/04/23 02:08:09;;;;;;;;;;;14.20;56.70;;;9.95;100.00;95081.44;5013979;28;20012;-49
2023/04/23 02:10:35;;;;;;;;;;;14.20;56.70;;;9.88;100.00;95076.41;5015232;28;19920;-50
2023/04/23 02:13:03;;;;;;;;;;;14.20;56.80;;;9.86;100.00;95077.75;5015020;28;19909;-49
2023/04/23 02:15:29;;;;;;;;;;;14.20;56.80;;;9.84;100.00;95079.88;5012195;28;20027;-51
2023/04/23 02:17:55;;;;;;;;;;;14.20;56.90;;;9.80;100.00;95092.13;5015482;28;19955;-50
2023/04/23 02:20:21;;;;;;;;;;;14.10;57.00;;;9.76;100.00;95094.53;5014192;28;19929;-49
2023/04/23 02:22:48;;;;;;;;;;;14.10;57.10;;;9.71;100.00;95091.88;5014647;28;19967;-50
2023/04/23 02:25:16;;;;;;;;;;;14.00;57.10;;;9.68;100.00;95092.41;5014958;28;19954;-50
2023/04/23 02:27:43;;;;;;;;;;;14.00;57.30;;;9.70;100.00;95092.94;5013527;28;20318;-49
2023/04/23 02:30:11;;;;;;;;;;;14.00;57.40;;;9.69;100.00;95092.16;5014594;28;19915;-49
2023/04/23 02:32:38;;;;;;;;;;;14.00;57.50;;;9.68;100.00;95098.56;5013971;28;19909;-49
2023/04/23 02:35:05;;;;;;;;;;;14.00;57.60;;;9.68;100.00;95098.56;5014899;28;20432;-49
2023/04/23 02:37:36;;;;;;;;;;;14.00;57.70;;;9.66;100.00;95091.91;5014645;28;20403;-50
2023/04/23 02:40:04;;;;;;;;;;;14.00;57.80;;;9.65;100.00;95088.47;5013820;28;19920;-49
2023/04/23 02:42:30;;;;;;;;;;;14.00;57.80;;;9.63;100.00;95090.59;5014866;28;19965;-50
2023/04/23 02:44:56;;;;;;;;;;;14.00;57.90;;;9.63;100.00;95085.25;5013607;28;19909;-49
2023/04/23 02:47:21;;;;;;;;;;;14.00;57.90;;;9.62;100.00;95090.84;5014399;28;20392;-49
2023/04/23 02:49:47;;;;;;;;;;;14.00;58.00;;;9.61;100.00;95091.91;5014498;28;20376;-50
2023/04/23 02:52:13;;;;;;;;;;;14.00;58.00;;;9.60;100.00;95095.66;5013551;28;19909;-49
2023/04/23 02:54:38;;;;;;;;;;;14.00;58.10;;;9.61;100.00;95091.91;5013830;28;19916;-52
2023/04/23 02:57:05;;;;;;;;;;;13.90;58.10;;;9.59;100.00;95078.91;5012951;28;19921;-52
2023/04/23 02:59:31;;;;;;;;;;;14.00;58.20;;;9.58;100.00;95071.97;5014367;28;19913;-49
2023/04/23 03:01:57;;;;;;;;;;;13.90;58.20;;;9.51;100.00;95076.78;5013377;28;19916;-49
2023/04/23 03:04:23;;;;;;;;;;;13.90;58.20;;;9.49;100.00;95074.41;5014234;28;19909;-50
2023/04/23 03:06:49;;;;;;;;;;;13.90;58.30;;;9.49;100.00;95073.59;5013818;28;20590;-50
2023/04/23 03:09:15;;;;;;;;;;;13.90;58.40;;;9.46;100.00;95077.59;5013226;28;20050;-50
2023/04/23 03:11:40;;;;;;;;;;;13.80;59.00;;;9.48;100.00;95083.44;5014260;28;19916;-50
2023/04/23 03:14:06;;;;;;;;;;;13.80;58.50;;;9.48;100.00;95078.09;5013275;28;20002;-50
2023/04/23 03:16:32;;;;;;;;;;;13.80;58.60;;;9.46;100.00;95074.13;5013978;28;20038;-49
2023/04/23 03:18:59;;;;;;;;;;;13.80;58.60;;;9.45;100.00;95070.66;5013931;28;19909;-50
2023/04/23 03:21:26;;;;;;;;;;;13.80;58.70;;;9.42;100.00;95068.56;5011911;28;19919;-50
2023/04/23 03:23:51;;;;;;;;;;;13.80;58.70;;;9.42;100.00;95067.75;5013590;28;19909;-52
2023/04/23 03:26:17;;;;;;;;;;;13.80;58.80;;;9.41;100.00;95074.94;5012587;28;20334;-49
2023/04/23 03:28:43;;;;;;;;;;;13.80;58.80;;;9.41;100.00;95069.63;5013538;28;19909;-49
2023/04/23 03:31:09;;;;;;;;;;;13.80;58.90;;;9.39;100.00;95062.97;5013491;28;19916;-50
2023/04/23 03:33:35;;;;;;;;;;;13.70;58.90;;;9.38;100.00;95072.03;5012399;28;19917;-51
2023/04/23 03:36:01;;;;;;;;;;;13.70;58.90;;;9.36;100.00;95071.50;5013185;28;19919;-50
2023/04/23 03:38:27;;;;;;;;;;;13.70;59.00;;;9.35;100.00;95070.69;5012521;28;19909;-51
2023/04/23 03:40:52;;;;;;;;;;;13.80;59.10;;;9.36;100.00;95071.50;5013274;28;19955;-50
2023/04/23 03:43:18;;;;;;;;;;;13.70;59.10;;;9.33;100.00;95072.81;5013232;28;19996;-50
2023/04/23 03:45:44;;;;;;;;;;;13.80;59.10;;;9.33;100.00;95070.16;5012605;28;19909;-50
2023/04/23 03:48:10;;;;;;;;;;;13.80;59.20;;;9.32;100.00;95065.91;5013200;28;19909;-50
2023/04/23 03:50:39;;;;;;;;;;;13.80;59.20;;;9.32;100.00;95070.44;5012247;28;20322;-50
2023/04/23 03:53:06;;;;;;;;;;;13.70;59.20;;;9.31;100.00;95060.84;5013072;28;19916;-50
2023/04/23 03:55:32;;;;;;;;;;;13.80;59.30;;;9.30;100.00;95073.34;5011599;28;20024;-50
2023/04/23 03:58:00;;;;;;;;;;;13.80;59.40;;;9.30;100.00;95073.34;5012402;28;19991;-51
2023/04/23 04:00:28;;;;;;;;;;;13.70;59.40;;;9.32;100.00;95070.44;5008260;28;26808;-54
2023/04/23 04:02:54;;;;;;;;;;;13.70;59.40;;;9.32;100.00;95073.09;5009699;28;19916;-52
2023/04/23 04:05:21;;;;;;;;;;;13.70;59.40;;;9.32;100.00;95067.78;5012604;28;19975;-52
2023/04/23 04:07:47;;;;;;;;;;;13.70;59.50;;;9.32;100.00;95078.41;5011793;28;19917;-51
2023/04/23 04:10:12;;;;;;;;;;;13.70;59.60;;;9.32;100.00;95065.13;5012141;28;20291;-53
2023/04/23 04:12:39;;;;;;;;;;;13.70;59.60;;;9.30;100.00;95064.59;5012763;28;19909;-50
2023/04/23 04:15:06;;;;;;;;;;;13.70;59.70;;;9.29;100.00;95063.81;5011751;28;19959;-51
2023/04/23 04:17:32;;;;;;;;;;;13.70;59.70;;;9.29;100.00;95060.34;5012448;28;19931;-50
2023/04/23 04:19:57;;;;;;;;;;;13.70;59.80;;;9.30;100.00;95064.59;5012309;28;20360;-50
2023/04/23 04:22:23;;;;;;;;;;;13.70;59.80;;;9.28;100.00;95056.91;5031313;28;19941;-50
2023/04/23 04:24:50;;;;;;;;;;;13.70;59.90;;;9.25;100.00;95052.13;5032390;28;20334;-52
2023/04/23 04:27:17;;;;;;;;;;;13.70;59.90;;;9.24;100.00;95054.00;5019673;28;19967;-51
2023/04/23 04:29:43;;;;;;;;;;;13.70;59.90;;;9.25;100.00;95054.78;5012573;28;19909;-50
2023/04/23 04:32:10;;;;;;;;;;;13.60;59.90;;;9.24;100.00;95055.81;5013022;28;19913;-51
2023/04/23 04:34:37;;;;;;;;;;;13.70;60.00;;;9.25;100.00;95046.81;5032048;28;19908;-51
2023/04/23 04:37:03;;;;;;;;;;;13.60;60.00;;;9.24;100.00;95047.84;5012690;28;19982;-50
2023/04/23 04:39:29;;;;;;;;;;;13.60;60.10;;;9.22;100.00;95053.44;5011325;28;19916;-50
2023/04/23 04:41:56;;;;;;;;;;;13.60;60.10;;;9.22;100.00;95057.97;5012425;28;19920;-50
2023/04/23 04:44:22;;;;;;;;;;;13.60;60.10;;;9.23;100.00;95060.34;5014603;28;20306;-50
2023/04/23 04:46:48;;;;;;;;;;;13.60;60.20;;;9.23;100.00;95055.03;5017757;28;19909;-49
2023/04/23 04:49:14;;;;;;;;;;;13.70;60.30;;;9.24;100.00;95050.50;5012248;28;20394;-50
2023/04/23 04:51:40;;;;;;;;;;;13.70;60.30;;;9.23;100.00;95048.94;5011337;28;20304;-50
2023/04/23 04:54:07;;;;;;;;;;;13.70;60.30;;;9.23;100.00;95051.59;5011194;28;19932;-51
2023/04/23 04:56:34;;;;;;;;;;;13.70;61.10;;;9.25;100.00;95049.47;5010996;28;20368;-51
2023/04/23 04:59:00;;;;;;;;;;;13.80;60.40;;;9.26;100.00;95053.72;5012069;28;19952;-52
2023/04/23 05:01:28;;;;;;;;;;;13.80;60.40;;;9.29;100.00;95053.16;5011802;28;19959;-50
2023/04/23 05:03:55;;;;;;;;;;;13.80;60.40;;;9.31;100.00;95053.72;5010869;28;19909;-52
2023/04/23 05:06:21;;;;;;;;;;;13.80;60.40;;;9.34;100.00;95058.50;5012077;28;19913;-50
2023/04/23 05:08:48;;;;;;;;;;;13.80;60.40;;;9.37;100.00;95057.13;5010541;28;20381;-51
2023/04/23 05:11:16;;;;;;;;;;;13.90;60.50;;;9.40;100.00;95057.41;5011891;28;19997;-55
2023/04/23 05:13:42;;;;;;;;;;;13.90;60.50;;;9.40;100.00;95059.25;5011848;28;19909;-51
2023/04/23 05:16:08;;;;;;;;;;;13.90;60.50;;;9.44;100.00;95057.66;5011021;28;19959;-50
2023/04/23 05:18:34;;;;;;;;;;;14.00;60.60;;;9.47;100.00;95057.13;5014468;28;19916;-51
2023/04/23 05:21:00;;;;;;;;;;;14.00;60.60;;;9.51;100.00;95052.84;5014970;28;19924;-53
2023/04/23 05:23:25;;;;;;;;;;;14.00;60.50;;;9.53;100.00;95044.59;5015864;28;19963;-50
2023/04/23 05:25:54;;;;;;;;;;;14.10;60.60;;;9.54;100.00;95038.22;5015875;28;20012;-50
2023/04/23 05:28:20;;;;;;;;;;;14.10;60.60;;;9.58;100.00;95048.03;5014944;28;19909;-51
2023/04/23 05:30:46;;;;;;;;;;;14.20;60.60;;;9.60;100.00;95053.09;4987148;28;27328;-54
2023/04/23 05:33:12;;;;;;;;;;;14.20;60.60;;;9.63;100.00;95057.88;5024083;28;19968;-51
2023/04/23 05:35:37;;;;;;;;;;;14.20;60.70;;;9.66;100.00;95060.00;5034422;28;19908;-50
2023/04/23 05:38:05;;;;;;;;;;;14.30;60.70;;;9.67;100.00;95057.06;5033378;28;19915;-50
2023/04/23 05:40:31;;;;;;;;;;;14.30;60.70;;;9.68;100.00;95065.81;5015634;28;19964;-52
2023/04/23 05:43:00;;;;;;;;;;;14.30;61.40;;;9.74;100.00;95062.09;5015423;28;19932;-52
2023/04/23 05:45:27;;;;;;;;;;;14.40;61.40;;;9.72;100.00;95057.03;5016881;28;20327;-50
2023/04/23 05:47:53;;;;;;;;;;;14.40;60.60;;;9.77;100.00;95050.91;5014627;28;19916;-50
2023/04/23 05:50:20;;;;;;;;;;;14.50;60.70;;;9.78;100.00;95044.53;5014167;28;20295;-53
2023/04/23 05:52:46;;;;;;;;;;;14.50;60.60;;;9.84;100.00;95050.59;5014925;28;19909;-51
2023/04/23 05:55:14;;;;;;;;;;;14.60;60.60;;;9.87;100.00;95058.84;5030430;28;19909;-50
2023/04/23 05:57:40;;;;;;;;;;;14.60;60.50;;;9.92;100.00;95058.03;5027806;28;20272;-51
2023/04/23 06:00:13;;;;;;;;;;;14.70;60.60;;;9.92;100.00;95050.06;5034640;28;19951;-51
2023/04/23 06:02:40;;;;;;;;;;;14.70;60.50;;;9.96;100.00;95043.94;5027890;28;19913;-52
2023/04/23 06:05:07;;;;;;;;;;;14.80;60.50;;;10.07;100.00;95049.19;5015220;28;19909;-51
2023/04/23 06:07:33;;;;;;;;;;;14.90;60.40;;;10.15;100.00;95044.09;5031277;22;19928;-50
2023/04/23 06:09:59;;;;;;;;;;;15.00;60.40;;;10.19;100.00;95063.75;5031207;28;19913;-49
2023/04/23 06:12:25;;;;;;;;;;;15.10;60.30;;;10.24;100.00;95067.47;5033991;28;20340;-49
2023/04/23 06:14:54;;;;;;;;;;;15.10;60.20;;;10.26;100.00;95066.16;5048149;28;20277;-49
2023/04/23 06:17:19;;;;;;;;;;;15.10;60.10;;;10.30;100.00;95064.53;5033361;28;19936;-52
2023/04/23 06:19:45;;;;;;;;;;;15.10;60.20;;;10.33;100.00;95063.19;5034573;28;19951;-51
2023/04/23 06:22:11;;;;;;;;;;;15.10;60.30;;;10.39;100.00;95062.88;5032802;28;20351;-52
2023/04/23 06:24:36;;;;;;;;;;;15.20;60.30;;;10.41;100.00;95057.28;5033071;28;19912;-49
2023/04/23 06:27:02;;;;;;;;;;;15.20;60.30;;;10.41;100.00;95054.63;5031895;28;20429;-51
2023/04/23 06:29:29;;;;;;;;;;;15.20;60.30;;;10.38;100.00;95049.84;5032945;28;19909;-49
2023/04/23 06:31:55;;;;;;;;;;;15.30;60.20;;;10.43;100.00;95049.81;5034054;28;19917;-52
2023/04/23 06:34:22;;;;;;;;;;;15.40;60.30;;;10.48;100.00;95041.78;5009925;28;19909;-49
2023/04/23 06:36:50;;;;;;;;;;;15.40;60.10;;;10.59;100.00;95037.19;4993473;28;20287;-51
2023/04/23 06:39:15;;;;;;;;;;;15.50;60.10;;;10.71;100.00;95039.50;5012752;28;20321;-51
2023/04/23 06:41:41;;;;;;;;;;;15.60;60.00;;;10.78;100.00;95038.13;5034204;28;19954;-49
2023/04/23 06:44:07;;;;;;;;;;;15.70;60.00;;;10.86;100.00;95031.38;5020248;28;19913;-49
2023/04/23 06:46:32;;;;;;;;;;;15.80;60.00;;;10.93;100.00;95031.06;5013583;28;19963;-50
2023/04/23 06:48:58;;;;;;;;;;;15.90;59.90;;;11.05;100.00;95028.81;5013657;28;19916;-49
2023/04/23 06:51:27;;;;;;;;;;;16.10;59.80;;;11.13;100.00;95016.78;5024341;28;19944;-53
2023/04/23 06:53:53;;;;;;;;;;;16.30;59.70;;;11.25;100.00;95014.50;5017584;28;20334;-50
2023/04/23 06:56:20;;;;;;;;;;;16.50;59.60;;;11.46;100.00;95018.53;5028048;28;20493;-49
2023/04/23 06:58:46;;;;;;;;;;;16.70;59.50;;;11.61;100.00;95028.25;5010881;28;21441;-49
2023/04/23 07:01:12;;;;;;;;;;;16.90;59.30;;;11.72;100.00;95019.06;5012435;28;19955;-49
2023/04/23 07:03:38;;;;;;;;;;;17.10;59.20;;;11.90;100.00;95009.53;4999161;28;19909;-49
2023/04/23 07:06:04;;;;;;;;;;;17.40;59.10;;;12.00;98.04;95004.06;5006162;28;20342;-51
2023/04/23 07:08:30;;;;;;;;;;;17.50;58.90;;;12.10;97.35;95005.03;5018592;28;19923;-54
2023/04/23 07:10:56;;;;;;;;;;;17.70;58.80;;;12.10;95.94;95003.16;5026029;28;19995;-50
2023/04/23 07:13:23;;;;;;;;;;;17.70;58.60;;;12.19;95.65;95003.28;5025544;28;20371;-51
2023/04/23 07:15:49;;;;;;;;;;;17.70;58.50;;;12.17;95.09;94987.56;5014635;28;20363;-49
2023/04/23 07:18:15;;;;;;;;;;;17.70;58.40;;;12.11;94.45;94990.59;5021119;28;19940;-49
2023/04/23 07:20:41;;;;;;;;;;;17.70;58.30;;;12.16;94.19;94985.16;5011453;28;20019;-51
2023/04/23 07:23:06;;;;;;;;;;;17.80;58.20;;;12.22;94.16;94987.50;5027072;28;20358;-49
2023/04/23 07:25:32;;;;;;;;;;;17.80;58.10;;;12.30;95.35;94988.72;5028702;28;19962;-51
2023/04/23 07:27:58;;;;;;;;;;;17.90;57.90;;;12.39;95.03;94978.97;5011332;28;19920;-54
2023/04/23 07:30:26;;;;;;;;;;;18.10;57.90;;;12.55;93.81;94970.72;5006837;28;19975;-54
2023/04/23 07:32:54;;;;;;;;;;;18.30;57.70;;;12.95;94.21;94967.38;5006822;28;19909;-51
2023/04/23 07:35:20;;;;;;;;;;;18.70;57.60;;;13.24;89.64;94968.19;5021691;28;20348;-49
2023/04/23 07:37:46;;;;;;;;;;;19.00;57.50;;;13.41;88.23;94971.09;5012024;28;20345;-56
2023/04/23 07:40:12;;;;;;;;;;;19.30;57.30;;;13.43;85.02;94977.75;5009966;28;19912;-53
2023/04/23 07:42:38;;;;;;;;;;;19.50;57.10;;;13.55;85.82;94971.91;5014193;28;19909;-50
2023/04/23 07:45:05;;;;;;;;;;;19.70;56.80;;;13.80;86.78;94965.25;5012877;28;19915;-49
2023/04/23 07:47:30;;;;;;;;;;;19.90;56.60;;;13.97;85.12;94966.50;5014335;28;20008;-60
2023/04/23 07:49:56;;;;;;;;;;;20.00;56.30;;;14.07;82.13;94964.41;5020086;28;20019;-56
2023/04/23 07:52:22;;;;;;;;;;;20.20;56.20;;;14.21;81.25;94964.38;5024879;28;20470;-49
2023/04/23 07:54:48;;;;;;;;;;;20.30;55.80;;;14.35;79.98;94967.00;5018331;28;20359;-49
2023/04/23 07:57:15;;;;;;;;;;;20.50;56.20;;;14.33;78.59;94970.00;5023309;28;19917;-54
2023/04/23 07:59:40;;;;;;;;;;;20.70;55.30;;;14.46;78.99;94965.69;5018970;28;19917;-50
2023/04/23 08:02:06;;;;;;;;;;;20.80;55.00;;;14.43;75.86;94952.88;5020270;28;19908;-61
2023/04/23 08:04:32;;;;;;;;;;;20.90;54.70;;;14.51;75.18;94957.56;5013755;28;19908;-52
2023/04/23 08:06:58;;;;;;;;;;;21.10;54.40;;;14.66;75.70;94953.69;5018292;28;19916;-52
2023/04/23 08:09:24;;;;;;;;;;;21.20;54.30;;;14.85;75.76;94958.88;5016892;28;19942;-52
2023/04/23 08:11:50;;;;;;;;;;;21.30;54.20;;;14.99;73.93;94954.22;5016865;28;19916;-49
2023/04/23 08:14:17;;;;;;;;;;;21.30;54.10;;;14.95;71.12;94952.50;5018722;28;19913;-51
2023/04/23 08:16:43;;;;;;;;;;;21.30;53.80;;;14.94;69.88;94961.59;5019147;28;20357;-50
2023/04/23 08:19:10;;;;;;;;;;;21.30;53.60;;;14.98;70.47;94949.19;5017215;28;20003;-54
2023/04/23 08:21:36;;;;;;;;;;;21.30;53.30;;;15.10;71.37;94952.06;5017671;28;19913;-49
2023/04/23 08:24:03;;;;;;;;;;;21.30;53.30;;;15.29;71.04;94938.44;5015521;28;19909;-53
2023/04/23 08:26:29;;;;;;;;;;;21.40;53.20;;;15.42;69.78;94939.44;5020073;28;20798;-49
2023/04/23 08:28:56;;;;;;;;;;;21.50;53.00;;;15.68;68.76;94948.38;5019689;28;19917;-51
2023/04/23 08:31:22;;;;;;;;;;;21.70;52.80;;;15.80;68.71;94945.09;5016077;28;19988;-59
2023/04/23 08:33:48;;;;;;;;;;;21.80;52.80;;;15.79;66.57;94945.41;5006628;28;19917;-52
2023/04/23 08:36:14;;;;;;;;;;;21.90;52.60;;;15.78;69.58;94938.47;5027011;28;19916;-49
2023/04/23 08:38:40;;;;;;;;;;;21.90;52.40;;;15.86;68.40;94941.19;5016000;28;20016;-52
2023/04/23 08:41:12;;;;;;;;;;;22.00;52.30;;;15.91;67.36;94935.63;5031515;28;20444;-49
2023/04/23 08:43:50;;;;;;;;;;;22.10;52.20;;;15.92;69.99;94939.13;5030992;28;19936;-50
2023/04/23 08:46:18;;;;;;;;;;;22.10;52.10;;;15.97;68.82;94933.59;5007753;28;20059;-49
2023/04/23 08:48:46;;;;;;;;;;;22.10;52.00;;;16.03;68.62;94934.25;5007438;28;19916;-54
2023/04/23 08:51:18;;;;;;;;;;;22.20;52.00;;;16.16;68.21;94935.97;5011754;28;20375;-51
2023/04/23 08:53:49;;;;;;;;;;;22.20;51.90;;;16.23;66.44;94938.97;4992294;28;20007;-49
2023/04/23 08:56:16;;;;;;;;;;;22.30;51.70;;;16.24;66.71;94943.28;5023183;28;20046;-54
2023/04/23 08:58:42;;;;;;;;;;;22.30;51.60;;;16.14;66.02;94932.84;5012249;28;19916;-49
2023/04/23 09:01:09;;;;;;;;;;;22.40;51.50;;;16.14;64.58;94938.22;5011256;28;19913;-51
2023/04/23 09:03:36;;;;;;;;;;;22.50;51.20;;;16.23;67.71;94927.44;5010795;28;19909;-49
2023/04/23 09:06:03;;;;;;;;;;;22.70;51.20;;;16.53;65.40;94929.19;5010352;28;19913;-51
2023/04/23 09:08:31;;;;;;;;;;;22.90;51.00;;;16.73;64.34;94927.72;5008557;28;19921;-51
2023/04/23 09:11:01;;;;;;;;;;;23.20;50.80;;;16.88;63.20;94934.53;5010559;28;19940;-49
2023/04/23 09:13:30;;;;;;;;;;;23.40;50.60;;;17.00;62.38;94928.50;5010914;28;19915;-49
2023/04/23 09:15:56;;;;;;;;;;;23.60;50.40;;;17.12;64.24;94931.31;5004781;28;19910;-51
2023/04/23 09:18:21;;;;;;;;;;;23.60;50.10;;;17.19;61.07;94926.22;5009828;28;19962;-49
2023/04/23 09:20:49;;;;;;;;;;;23.60;50.00;;;17.40;64.24;94920.16;5009893;28;20354;-53
2023/04/23 09:23:16;;;;;;;;;;;23.70;49.80;;;17.55;60.43;94915.00;5009485;28;20408;-54
2023/04/23 09:25:42;;;;;;;;;;;24.00;49.70;;;17.71;59.53;94915.22;5010345;28;20254;-50
2023/04/23 09:28:09;;;;;;;;;;;24.10;49.40;;;17.74;59.14;94913.78;5009751;28;19913;-52
2023/04/23 09:30:48;;;;;;;;;;;24.10;49.10;;;17.76;58.18;94914.25;5011075;28;20287;-51
2023/04/23 09:33:16;;;;;;;;;;;24.10;49.10;;;17.67;57.81;94908.91;5009316;28;19909;-52
2023/04/23 09:35:42;;;;;;;;;;;23.90;48.90;;;17.62;57.99;94901.03;5010160;28;19912;-50
2023/04/23 09:38:09;;;;;;;;;;;23.90;48.90;;;17.61;59.07;94895.94;5010478;28;20433;-49
2023/04/23 09:40:36;;;;;;;;;;;23.90;48.70;;;17.80;58.49;94899.84;5011054;28;19948;-52
2023/04/23 09:43:06;;;;;;;;;;;24.20;48.60;;;17.98;58.47;94887.03;5009863;28;19909;-49
2023/04/23 09:45:34;;;;;;;;;;;24.50;48.40;;;18.22;60.10;94875.59;5008936;28;20451;-51
2023/04/23 09:47:59;;;;;;;;;;;24.80;48.10;;;18.27;58.62;94874.63;5011172;28;20004;-49
2023/04/23 09:50:33;;;;;;;;;;;25.20;47.90;;;18.61;60.64;94868.09;5009279;28;19999;-51
2023/04/23 09:52:59;;;;;;;;;;;25.60;47.50;;;18.87;55.34;94856.28;5009941;28;19908;-49
2023/04/23 09:55:36;;;;;;;;;;;26.10;47.40;;;19.18;55.24;94859.25;5009917;28;19909;-50
2023/04/23 09:58:09;;;;;;;;;;;26.40;46.90;;;19.30;56.33;94863.84;5008866;28;20282;-49
2023/04/23 10:00:38;;;;;;;;;;;26.80;46.70;;;19.46;55.47;94866.69;5010120;28;19963;-53
2023/04/23 10:03:07;;;;;;;;;;;27.00;46.40;;;19.62;53.83;94859.47;5009709;28;19951;-52
2023/04/23 10:05:40;;;;;;;;;;;27.20;46.20;;;19.70;53.06;94859.72;5012506;28;19915;-50
2023/04/23 10:08:06;;;;;;;;;;;27.30;45.80;;;19.77;52.90;94857.22;5012321;28;19943;-54
2023/04/23 10:10:34;;;;;;;;;;;27.40;45.70;;;19.96;53.36;94862.03;5020435;28;19960;-52
2023/04/23 10:13:00;;;;;;;;;;;27.60;45.50;;;20.11;52.73;94861.31;5014393;28;19909;-52
2023/04/23 10:15:27;;;;;;;;;;;27.90;45.20;;;20.21;51.97;94849.22;5012731;28;19958;-55
2023/04/23 10:17:54;;;;;;;;;;;28.10;44.80;;;20.27;52.77;94853.25;5009923;28;20749;-56
2023/04/23 10:20:22;;;;;;;;;;;28.20;44.80;;;20.15;50.45;94862.22;5013330;28;20000;-56
2023/04/23 10:22:49;;;;;;;;;;;28.30;44.70;;;20.29;50.43;94851.78;5012476;28;19909;-52
2023/04/23 10:25:18;;;;;;;;;;;28.30;44.50;;;20.23;49.27;94850.47;5014086;28;19948;-50
2023/04/23 10:27:47;;;;;;;;;;;28.40;44.30;;;20.51;50.45;94844.28;5012691;28;19917;-52
2023/04/23 10:30:14;;;;;;;;;;;28.50;44.20;;;20.52;49.49;94845.88;5011633;28;20274;-49
2023/04/23 10:32:40;;;;;;;;;;;28.60;44.00;;;20.63;49.40;94846.16;5025907;28;20385;-53
2023/04/23 10:35:08;;;;;;;;;;;28.60;43.80;;;20.84;49.07;94835.91;5013366;28;19909;-49
2023/04/23 10:37:36;;;;;;;;;;;28.80;43.60;;;20.93;48.66;94833.00;5013773;28;19920;-52
2023/04/23 10:40:12;;;;;;;;;;;29.00;43.50;;;21.12;49.35;94826.91;5012129;28;19913;-55
2023/04/23 10:42:41;;;;;;;;;;;29.10;43.20;;;21.49;47.32;94825.50;5000962;28;20273;-49
2023/04/23 10:45:19;;;;;;;;;;;29.20;43.30;;;21.85;48.14;94820.88;5020290;28;19935;-50
2023/04/23 10:47:45;;;;;;;;;;;29.30;43.20;;;21.57;46.03;94820.25;5012293;28;19957;-51
2023/04/23 10:50:38;;;;;;;;;;;29.30;42.80;;;21.54;48.01;94826.38;5012660;28;20311;-54
2023/04/23 10:53:03;;;;;;;;;;;29.20;42.50;;;21.74;48.56;94817.13;5030851;28;19909;-51
2023/04/23 10:55:31;;;;;;;;;;;29.20;42.40;;;21.94;47.63;94815.25;5013158;28;19916;-49
2023/04/23 10:58:07;;;;;;;;;;;29.20;42.40;;;22.18;48.06;94812.28;5008050;28;19949;-53
2023/04/23 11:00:42;;;;;;;;;;;29.40;42.30;;;22.11;47.52;94814.03;5012917;28;20678;-50
2023/04/23 11:03:38;;;;;;;;;;;29.50;41.90;;;22.58;47.13;94813.03;5011793;28;19913;-53
2023/04/23 11:06:06;;;;;;;;;;;29.90;41.90;;;23.01;43.67;94817.34;5028728;28;19912;-50
2023/04/23 11:08:34;;;;;;;;;;;30.40;41.70;;;22.88;41.95;94805.06;5010411;28;19928;-51
2023/04/23 11:11:06;;;;;;;;;;;30.90;41.50;;;22.50;43.79;94804.00;5012952;28;19913;-50
2023/04/23 11:13:32;;;;;;;;;;;31.20;41.20;;;22.67;42.23;94808.19;5013033;28;19999;-51
2023/04/23 11:16:17;;;;;;;;;;;31.70;40.80;;;23.04;43.54;94799.53;5011589;28;20343;-50